• Join FlightAware (Why Join?)
  • Login
  • US Flag 
11:21AM EDT


 

Airport Tracker/Info


-or-


 

Live Flight TrackerFlight Track Log ✈ EJA829P ✈ 03-Nov-2013 ✈ KBUR - KSAN

Flight Track Log - Related Links

Times and Time Zones

All times are in EST time to prevent confusion due to time zone crossing. See the EJA829P flight status page for this flight to view local times or setup timezone preferences in your user account.

Time Position Orientation Groundspeed Altitude Reporting Facility
EST Latitude Longitude Course Direction KTS MPH feet Rate Location/Type
09:22PM 34.1833 -118.3500 231° Southwest 184 212 1,800  Level Southern California TRACON
09:23PM 34.1500 -118.4000 231° Southwest 236 272 5,300 3,900 Climbing Southern California TRACON
09:24PM 34.1833 -118.4333 320° Northwest 227 261 9,700 2,820 Climbing Southern California TRACON
09:25PM 34.2000 -118.3333 79° East 321 369 11,000 840 Climbing Southern California TRACON
09:26PM 34.1886 -118.3044 115° Southeast 321 369 11,000  Level Los Angeles Center
09:27PM 34.1100 -118.2419 147° Southeast 337 388 11,000  Level Los Angeles Center
09:28PM 34.0225 -118.1925 155° Southeast 345 397 11,000  Level Los Angeles Center
09:29PM 33.9533 -118.1519 154° Southeast 346 398 11,000  Level Los Angeles Center
09:30PM 33.8481 -118.0919 155° Southeast 345 397 11,000  Level Los Angeles Center
09:31PM 33.7333 -118.0825 176° South 344 396 11,000  Level Los Angeles Center
09:32PM 33.6481 -118.0300 153° Southeast 358 412 11,000  Level Los Angeles Center
09:33PM 33.5797 -117.9492 135° Southeast 350 403 11,000  Level Los Angeles Center
09:34PM 33.5108 -117.8669 135° Southeast 349 402 11,000  Level Los Angeles Center
09:35PM 33.4167 -117.7500 134° Southeast 346 398 11,000  Level Southern California TRACON
09:36PM 33.3500 -117.6833 140° Southeast 346 398 11,000  Level Southern California TRACON
09:37PM 33.2833 -117.6000 134° Southeast 348 400 11,000  Level Southern California TRACON
09:38PM 33.2167 -117.5333 140° Southeast 348 400 11,000 -300 Level Southern California TRACON
09:39PM 33.1167 -117.4667 151° Southeast 334 384 10,500 -600 Descending Southern California TRACON
09:40PM 33.0731 -117.4364 150° Southeast 329 379 9,900 -960 Descending Los Angeles Center
09:41PM 32.9892 -117.3758 149° Southeast 297 342 8,700 -1,080 Descending Los Angeles Center
09:42PM 32.9203 -117.3225 147° Southeast 296 341 7,700 -1,020 Descending Los Angeles Center
09:43PM 32.8739 -117.2428 125° Southeast 293 337 6,700 -1,020 Descending Los Angeles Center
09:44PM 32.8200 -117.1731 133° Southeast 289 333 5,700 -780 Descending Los Angeles Center
09:45PM 32.7958 -117.0881 109° East 272 313 5,200 -420 Descending Los Angeles Center
09:46PM 32.7833 -117.0000 100° East 262 302 5,000 -180 Descending Southern California TRACON
09:47PM 32.7333 -116.9333 132° Southeast 208 239 4,900 -600 Descending Southern California TRACON
09:48PM 32.7000 -116.9500 203° Southwest 206 237 3,900 -960 Descending Southern California TRACON
09:49PM 32.6833 -117.0167 253° West 186 214 3,100 -960 Descending Southern California TRACON
09:50PM 32.7000 -117.0667 292° West 182 209 2,000 -960 Descending Southern California TRACON
09:51PM 32.7167 -117.1167 292° West 162 186 1,300 -780 Descending Southern California TRACON
09:52PM 32.7333 -117.1667 292° West 142 163 500 -780 Descending Southern California TRACON